Time;durP1;ratioP1;P1;durP2;ratioP2;P2;SDS_P1;SDS_P2;PMS_P1;PMS_P2;Temp;Humidity;BMP_temperature;BMP_pressure;BME280_temperature;BME280_humidity;BME280_pressure;Samples;Min_cycle;Max_cycle;Signal;HPM_P1;HPM_P2
2022/07/10 00:01:06;;;;;;;6.68;1.70;;;14.70;99.90;;;;;;5067478;28;20446;-72
2022/07/10 00:03:32;;;;;;;8.10;2.38;;;14.60;99.90;;;;;;5072621;28;20032;-72
2022/07/10 00:05:57;;;;;;;11.75;2.13;;;14.60;99.90;;;;;;5074041;28;20434;-72
2022/07/10 00:08:23;;;;;;;6.85;2.10;;;14.60;99.90;;;;;;5068882;28;20040;-72
2022/07/10 00:10:49;;;;;;;9.65;2.10;;;14.60;99.90;;;;;;5059547;28;20036;-72
2022/07/10 00:13:14;;;;;;;7.13;1.85;;;14.50;99.90;;;;;;5065416;28;20044;-72
2022/07/10 00:15:40;;;;;;;9.30;2.33;;;14.40;99.90;;;;;;5069921;28;20039;-72
2022/07/10 00:18:06;;;;;;;9.32;2.17;;;14.40;99.90;;;;;;5081315;28;20039;-72
2022/07/10 00:20:32;;;;;;;7.50;1.90;;;14.40;99.90;;;;;;5067735;28;20420;-72
2022/07/10 00:22:57;;;;;;;10.00;2.67;;;14.40;99.90;;;;;;5080226;28;20052;-72
2022/07/10 00:25:23;;;;;;;10.57;2.30;;;14.40;99.90;;;;;;5070619;28;20124;-72
2022/07/10 00:27:48;;;;;;;8.98;1.73;;;14.40;99.90;;;;;;5086315;28;20395;-72
2022/07/10 00:30:14;;;;;;;7.63;1.90;;;14.30;99.90;;;;;;5090879;28;20067;-72
2022/07/10 00:32:40;;;;;;;10.82;2.30;;;14.20;99.90;;;;;;5077420;28;20048;-73
2022/07/10 00:35:06;;;;;;;8.55;1.80;;;14.30;99.90;;;;;;5081677;28;20044;-72
2022/07/10 00:37:33;;;;;;;6.63;2.00;;;14.30;99.90;;;;;;5085226;28;20992;-72
2022/07/10 00:39:59;;;;;;;11.02;2.10;;;14.20;99.90;;;;;;5074332;28;20071;-72
2022/07/10 00:42:26;;;;;;;8.02;1.80;;;14.20;99.90;;;;;;5071038;28;20043;-72
2022/07/10 00:44:51;;;;;;;7.40;2.10;;;14.20;99.90;;;;;;5065514;28;20051;-72
2022/07/10 00:47:19;;;;;;;8.88;1.92;;;14.20;99.90;;;;;;5065752;28;20051;-72
2022/07/10 00:49:46;;;;;;;9.02;2.20;;;14.10;99.90;;;;;;5081170;28;20367;-73
2022/07/10 00:52:13;;;;;;;7.93;2.30;;;14.10;99.90;;;;;;5054543;28;20045;-73
2022/07/10 00:54:50;;;;;;;5.68;1.90;;;14.10;99.90;;;;;;5079734;28;20235;-72
2022/07/10 00:57:17;;;;;;;11.20;2.25;;;14.00;99.90;;;;;;5064238;28;20040;-72
2022/07/10 00:59:44;;;;;;;8.95;2.55;;;13.90;99.90;;;;;;5064435;28;20129;-72
2022/07/10 01:02:10;;;;;;;8.30;2.40;;;13.90;99.90;;;;;;5071152;28;20041;-72
2022/07/10 01:04:36;;;;;;;9.88;2.50;;;13.90;99.90;;;;;;5071678;28;20162;-73
2022/07/10 01:07:02;;;;;;;8.93;2.33;;;13.90;99.90;;;;;;5064465;28;20046;-73
2022/07/10 01:09:31;;;;;;;11.65;2.58;;;13.80;99.90;;;;;;5078894;28;20037;-72
2022/07/10 01:11:59;;;;;;;7.90;2.30;;;13.80;99.90;;;;;;5059308;28;20054;-72
2022/07/10 01:14:25;;;;;;;8.77;2.75;;;13.80;99.90;;;;;;5082879;28;20402;-72
2022/07/10 01:16:52;;;;;;;7.25;2.22;;;13.80;99.90;;;;;;5062224;28;20029;-72
2022/07/10 01:19:18;;;;;;;11.77;2.33;;;13.80;99.90;;;;;;5058218;28;20052;-72
2022/07/10 01:21:43;;;;;;;7.72;2.13;;;13.80;99.90;;;;;;5071350;28;20747;-73
2022/07/10 01:24:10;;;;;;;8.07;2.40;;;13.80;99.90;;;;;;5055425;28;20472;-73
2022/07/10 01:26:38;;;;;;;8.30;2.65;;;13.80;99.90;;;;;;5066581;28;20053;-72
2022/07/10 01:29:06;;;;;;;7.53;2.28;;;13.80;99.90;;;;;;5071707;28;20044;-72
2022/07/10 01:31:33;;;;;;;9.15;1.95;;;13.80;99.90;;;;;;5059680;28;20859;-72
2022/07/10 01:34:00;;;;;;;8.90;2.30;;;13.80;99.90;;;;;;5084916;28;20032;-72
2022/07/10 01:36:29;;;;;;;9.25;2.17;;;13.80;99.90;;;;;;5071438;28;20523;-72
2022/07/10 01:38:56;;;;;;;12.45;2.95;;;13.80;99.90;;;;;;5077991;28;20177;-72
2022/07/10 01:41:23;;;;;;;5.18;1.60;;;13.80;99.90;;;;;;5078726;28;20075;-72
2022/07/10 01:43:49;;;;;;;8.30;2.28;;;13.80;99.90;;;;;;5066005;28;20056;-72
2022/07/10 01:46:15;;;;;;;10.43;2.40;;;13.80;99.90;;;;;;5056234;28;20245;-73
2022/07/10 01:48:41;;;;;;;7.07;2.13;;;13.80;99.90;;;;;;5089447;28;20039;-73
2022/07/10 01:51:08;;;;;;;7.90;1.95;;;13.80;99.90;;;;;;5077229;28;20097;-72
2022/07/10 01:53:34;;;;;;;10.20;2.05;;;13.90;99.90;;;;;;5054509;28;20115;-73
2022/07/10 01:56:01;;;;;;;7.47;2.05;;;13.90;99.90;;;;;;5085104;28;20558;-72
2022/07/10 01:58:27;;;;;;;8.02;2.22;;;13.90;99.90;;;;;;5055847;28;20135;-73
2022/07/10 02:00:52;;;;;;;10.25;2.55;;;13.90;99.90;;;;;;5073621;28;20119;-73
2022/07/10 02:06:02;;;;;;;6.55;1.85;;;13.90;99.90;;;;;;5071073;28;20496;-72
2022/07/10 02:08:28;;;;;;;7.65;2.10;;;13.90;99.90;;;;;;5086031;28;20044;-73
2022/07/10 02:10:54;;;;;;;9.80;2.33;;;13.90;99.90;;;;;;5063290;28;20051;-72
2022/07/10 02:13:20;;;;;;;7.47;1.90;;;13.90;99.90;;;;;;5076255;28;20496;-73
2022/07/10 02:15:49;;;;;;;10.30;2.50;;;13.90;99.90;;;;;;5051730;28;20041;-72
2022/07/10 02:18:15;;;;;;;11.35;2.30;;;13.90;99.90;;;;;;5060577;28;20610;-72
2022/07/10 02:20:41;;;;;;;8.57;2.00;;;13.90;99.90;;;;;;5086857;28;20123;-73
2022/07/10 02:23:06;;;;;;;12.30;2.60;;;13.90;99.90;;;;;;5077173;28;20048;-73
2022/07/10 02:25:33;;;;;;;8.43;2.22;;;13.90;99.90;;;;;;5082453;28;20147;-73
2022/07/10 02:27:59;;;;;;;9.25;2.00;;;13.80;99.90;;;;;;5072523;28;20078;-73
2022/07/10 02:30:25;;;;;;;11.40;1.98;;;13.80;99.90;;;;;;5054480;28;20503;-73
2022/07/10 02:32:51;;;;;;;8.10;1.88;;;13.80;99.90;;;;;;5052039;28;20040;-72
2022/07/10 02:35:17;;;;;;;14.63;2.55;;;13.70;99.90;;;;;;5082134;28;20055;-73
2022/07/10 02:37:43;;;;;;;7.03;1.98;;;13.70;99.90;;;;;;5056976;28;20055;-73
2022/07/10 02:40:09;;;;;;;7.82;1.98;;;13.70;99.90;;;;;;5065066;28;20551;-72
2022/07/10 02:42:35;;;;;;;10.90;3.08;;;13.70;99.90;;;;;;5085620;28;20074;-73
2022/07/10 02:45:00;;;;;;;9.00;2.20;;;13.70;99.90;;;;;;5085089;28;20043;-72
2022/07/10 02:47:26;;;;;;;11.50;2.38;;;13.70;99.90;;;;;;5082769;28;20062;-73
2022/07/10 02:49:51;;;;;;;8.52;1.92;;;13.60;99.90;;;;;;5076680;28;20040;-72
2022/07/10 02:52:17;;;;;;;10.13;2.20;;;13.60;99.90;;;;;;5082149;28;20110;-73
2022/07/10 02:54:43;;;;;;;11.35;2.53;;;13.60;99.90;;;;;;5074521;28;20028;-72
2022/07/10 02:57:08;;;;;;;9.20;2.03;;;13.60;99.90;;;;;;5069819;28;20047;-73
2022/07/10 02:59:34;;;;;;;8.95;2.00;;;13.60;99.90;;;;;;5059300;28;20044;-72
2022/07/10 03:02:00;;;;;;;12.13;2.35;;;13.60;99.90;;;;;;5073170;28;20284;-72
2022/07/10 03:04:26;;;;;;;9.20;2.33;;;13.50;99.90;;;;;;5054160;28;20048;-72
2022/07/10 03:06:52;;;;;;;12.20;2.40;;;13.50;99.90;;;;;;5075860;28;20036;-72
2022/07/10 03:09:17;;;;;;;8.27;2.10;;;13.50;99.90;;;;;;5060237;28;20184;-72
2022/07/10 03:11:43;;;;;;;8.60;2.50;;;13.50;99.90;;;;;;5078317;28;20182;-72
2022/07/10 03:14:08;;;;;;;9.50;2.60;;;13.50;99.90;;;;;;5084262;28;20040;-73
2022/07/10 03:16:34;;;;;;;9.82;2.42;;;13.50;99.90;;;;;;5087756;28;20029;-72
2022/07/10 03:19:00;;;;;;;8.93;2.40;;;13.50;99.90;;;;;;5076044;28;20047;-73
2022/07/10 03:21:25;;;;;;;8.80;2.00;;;13.60;99.90;;;;;;5089684;28;20130;-72
2022/07/10 03:23:51;;;;;;;9.48;2.03;;;13.50;99.90;;;;;;5063371;28;20127;-72
2022/07/10 03:26:16;;;;;;;8.43;2.03;;;13.60;99.90;;;;;;5081195;28;20046;-73
2022/07/10 03:28:42;;;;;;;6.60;1.92;;;13.50;99.90;;;;;;5055300;28;20533;-73
2022/07/10 03:31:08;;;;;;;9.82;2.00;;;13.50;99.90;;;;;;5051202;28;20036;-73
2022/07/10 03:33:33;;;;;;;7.97;1.90;;;13.50;99.90;;;;;;5062921;28;20048;-72
2022/07/10 03:36:01;;;;;;;10.07;1.80;;;13.40;99.90;;;;;;5050891;28;20079;-73
2022/07/10 03:38:27;;;;;;;8.10;2.10;;;13.40;99.90;;;;;;5070016;28;20044;-72
2022/07/10 03:40:53;;;;;;;8.57;2.00;;;13.40;99.90;;;;;;5066602;28;20043;-72
2022/07/10 03:43:18;;;;;;;8.95;2.05;;;13.40;99.90;;;;;;5050577;28;20057;-72
2022/07/10 03:45:44;;;;;;;10.65;2.20;;;13.30;99.90;;;;;;5053991;28;20045;-73
2022/07/10 03:48:09;;;;;;;7.55;2.03;;;13.30;99.90;;;;;;5050436;28;20094;-73
2022/07/10 03:50:35;;;;;;;11.35;2.10;;;13.20;99.90;;;;;;5060033;28;20476;-72
2022/07/10 03:53:01;;;;;;;11.30;2.17;;;13.20;99.90;;;;;;5046950;28;20124;-72
2022/07/10 03:55:26;;;;;;;10.70;2.50;;;13.20;99.90;;;;;;5055679;28;20173;-73
2022/07/10 03:57:56;;;;;;;10.88;2.40;;;13.20;99.90;;;;;;5056390;28;20068;-72
2022/07/10 04:00:26;;;;;;;8.00;2.00;;;13.20;99.90;;;;;;5047872;28;20037;-73
2022/07/10 04:03:00;;;;;;;9.70;2.58;;;13.30;99.90;;;;;;5063446;28;20407;-73
2022/07/10 04:05:27;;;;;;;7.32;2.00;;;13.30;99.90;;;;;;5066394;28;20053;-72
2022/07/10 04:07:54;;;;;;;11.43;2.22;;;13.30;99.90;;;;;;5057047;28;20562;-72
2022/07/10 04:10:20;;;;;;;8.13;1.77;;;13.30;99.90;;;;;;5063852;28;20044;-72
2022/07/10 04:12:47;;;;;;;7.22;1.90;;;13.20;99.90;;;;;;5062677;28;20039;-72
2022/07/10 04:15:13;;;;;;;9.73;2.38;;;13.30;99.90;;;;;;5058595;28;20037;-72
2022/07/10 04:17:39;;;;;;;9.02;2.63;;;13.30;99.90;;;;;;5047725;28;20049;-72
2022/07/10 04:20:06;;;;;;;7.47;1.77;;;13.30;99.90;;;;;;5047662;28;20037;-72
2022/07/10 04:22:31;;;;;;;10.00;2.43;;;13.40;99.90;;;;;;5064416;28;20044;-72
2022/07/10 04:24:57;;;;;;;9.75;2.03;;;13.50;99.90;;;;;;5049835;28;20302;-72
2022/07/10 04:27:23;;;;;;;9.80;2.45;;;13.60;99.90;;;;;;5064722;28;20047;-73
2022/07/10 04:29:49;;;;;;;15.18;2.53;;;13.60;99.90;;;;;;5059234;28;20372;-73
2022/07/10 04:32:16;;;;;;;9.32;1.83;;;13.80;99.90;;;;;;5066172;28;20423;-72
2022/07/10 04:34:42;;;;;;;8.35;2.38;;;13.80;99.90;;;;;;5064286;28;20052;-73
2022/07/10 04:37:08;;;;;;;9.00;2.22;;;13.90;99.90;;;;;;5047808;28;20032;-72
2022/07/10 04:39:38;;;;;;;13.60;2.97;;;13.90;99.90;;;;;;5060396;28;20103;-72
2022/07/10 04:42:05;;;;;;;10.30;2.22;;;14.00;99.90;;;;;;5065251;28;20041;-72
2022/07/10 04:44:31;;;;;;;8.85;1.88;;;14.00;99.90;;;;;;5064065;28;20052;-73
2022/07/10 04:46:56;;;;;;;10.48;2.13;;;14.00;99.90;;;;;;5066116;28;20574;-73
2022/07/10 04:49:22;;;;;;;10.98;2.30;;;14.00;99.90;;;;;;5063958;28;21786;-72
2022/07/10 04:51:48;;;;;;;11.68;2.35;;;14.00;99.90;;;;;;5064343;28;20056;-72
2022/07/10 04:54:13;;;;;;;9.30;2.10;;;14.00;99.90;;;;;;5047904;28;20072;-73
2022/07/10 04:56:39;;;;;;;9.75;2.00;;;14.00;99.90;;;;;;5061177;28;20049;-72
2022/07/10 04:59:04;;;;;;;10.70;2.15;;;13.90;99.90;;;;;;5053251;28;20053;-72
2022/07/10 05:01:30;;;;;;;10.90;2.05;;;14.00;99.90;;;;;;5067032;28;20060;-73
2022/07/10 05:03:56;;;;;;;10.98;2.22;;;14.00;99.90;;;;;;5055948;28;20037;-72
2022/07/10 05:06:21;;;;;;;10.00;2.00;;;14.10;99.90;;;;;;5070114;28;20507;-73
2022/07/10 05:08:47;;;;;;;13.10;2.58;;;14.10;99.90;;;;;;5065636;28;20103;-72
2022/07/10 05:11:12;;;;;;;8.60;1.92;;;14.10;99.90;;;;;;5051994;28;20045;-72
2022/07/10 05:13:38;;;;;;;8.50;2.00;;;14.10;99.90;;;;;;5069377;28;20056;-72
2022/07/10 05:16:05;;;;;;;10.25;1.98;;;14.10;99.90;;;;;;5053295;28;20044;-72
2022/07/10 05:18:30;;;;;;;9.03;1.90;;;14.10;99.90;;;;;;5065008;28;20086;-73
2022/07/10 05:20:56;;;;;;;9.65;1.92;;;14.10;99.90;;;;;;5068299;28;20048;-73
2022/07/10 05:23:22;;;;;;;8.00;1.67;;;14.10;99.90;;;;;;5065885;28;20045;-72
2022/07/10 05:25:48;;;;;;;13.00;2.40;;;14.10;99.90;;;;;;5051577;28;20106;-73
2022/07/10 05:28:14;;;;;;;12.10;2.53;;;14.10;99.90;;;;;;5054054;28;20075;-72
2022/07/10 05:30:41;;;;;;;9.65;1.85;;;14.10;99.90;;;;;;5056141;28;20033;-72
2022/07/10 05:33:06;;;;;;;9.73;2.45;;;14.20;99.90;;;;;;5052729;28;21068;-72
2022/07/10 05:35:32;;;;;;;7.22;1.92;;;14.20;99.90;;;;;;5050951;28;20083;-73
2022/07/10 05:37:58;;;;;;;8.70;1.95;;;14.20;99.90;;;;;;5065748;28;20054;-73
2022/07/10 05:40:24;;;;;;;9.93;2.20;;;14.20;99.90;;;;;;5066526;28;20044;-72
2022/07/10 05:42:49;;;;;;;9.77;2.00;;;14.20;99.90;;;;;;5075903;28;20047;-72
2022/07/10 05:45:15;;;;;;;6.50;1.83;;;14.30;99.90;;;;;;5088500;28;20052;-73
2022/07/10 05:47:41;;;;;;;6.93;2.30;;;14.30;99.90;;;;;;5072104;28;20430;-73
2022/07/10 05:50:07;;;;;;;6.80;1.83;;;14.30;99.90;;;;;;5062548;28;20056;-73
2022/07/10 05:52:33;;;;;;;12.70;2.22;;;14.40;99.90;;;;;;5065102;28;20044;-72
2022/07/10 05:54:59;;;;;;;11.48;2.22;;;14.40;99.90;;;;;;5066340;28;20127;-72
2022/07/10 05:57:25;;;;;;;8.52;2.15;;;14.50;99.90;;;;;;5069763;28;20056;-72
2022/07/10 05:59:50;;;;;;;8.93;1.77;;;14.50;99.90;;;;;;5067889;28;20048;-73
2022/07/10 06:02:16;;;;;;;8.38;2.67;;;14.60;99.90;;;;;;5072563;28;20269;-73
2022/07/10 06:04:42;;;;;;;9.18;2.22;;;14.70;99.90;;;;;;5064636;28;20325;-73
2022/07/10 06:07:08;;;;;;;7.55;1.70;;;14.70;99.90;;;;;;5061293;28;20047;-72
2022/07/10 06:09:34;;;;;;;9.00;1.95;;;14.80;99.90;;;;;;5082542;28;20047;-72
2022/07/10 06:12:00;;;;;;;8.65;1.70;;;14.80;99.90;;;;;;5063773;28;20037;-73
2022/07/10 06:14:25;;;;;;;8.35;1.90;;;14.80;99.90;;;;;;5080639;28;20046;-73
2022/07/10 06:16:51;;;;;;;9.35;2.20;;;14.90;99.90;;;;;;5070788;28;20048;-72
2022/07/10 06:19:18;;;;;;;9.32;2.10;;;15.00;99.90;;;;;;5059900;28;20431;-72
2022/07/10 06:21:44;;;;;;;14.20;2.28;;;15.10;99.90;;;;;;5066166;28;20178;-73
2022/07/10 06:24:10;;;;;;;9.38;2.20;;;15.10;99.90;;;;;;5072652;28;20422;-72
2022/07/10 06:26:35;;;;;;;7.47;2.05;;;15.10;99.90;;;;;;5076337;28;20074;-72
2022/07/10 06:29:01;;;;;;;13.18;2.75;;;15.10;99.90;;;;;;5071396;28;20066;-72
2022/07/10 06:31:27;;;;;;;7.68;2.08;;;15.10;99.90;;;;;;5072239;28;20044;-72
2022/07/10 06:33:52;;;;;;;11.63;2.25;;;15.10;99.90;;;;;;5069013;28;20052;-72
2022/07/10 06:36:18;;;;;;;10.18;2.30;;;15.10;99.90;;;;;;5084262;28;20036;-72
2022/07/10 06:38:44;;;;;;;12.55;2.20;;;15.20;99.90;;;;;;5080249;28;20383;-72
2022/07/10 06:41:09;;;;;;;10.30;2.50;;;15.20;99.90;;;;;;5060343;28;20488;-72
2022/07/10 06:43:35;;;;;;;15.15;2.50;;;15.30;99.90;;;;;;5060900;28;20065;-72
2022/07/10 06:46:01;;;;;;;11.82;1.90;;;15.30;99.90;;;;;;5051553;28;20499;-73
2022/07/10 06:48:27;;;;;;;11.63;2.15;;;15.40;99.90;;;;;;5060218;28;20092;-72
2022/07/10 06:50:53;;;;;;;8.63;2.13;;;15.50;99.90;;;;;;5067588;28;20484;-72
2022/07/10 06:53:23;;;;;;;13.52;2.22;;;15.60;99.90;;;;;;5059840;28;20158;-72
2022/07/10 06:55:50;;;;;;;9.48;2.22;;;15.70;99.90;;;;;;5054292;28;20606;-75
2022/07/10 06:58:16;;;;;;;10.40;2.47;;;15.80;99.90;;;;;;5050889;28;20114;-72
2022/07/10 07:00:42;;;;;;;11.63;2.50;;;15.80;99.90;;;;;;5055093;28;20045;-72
2022/07/10 07:03:08;;;;;;;14.05;2.70;;;15.80;99.90;;;;;;5048830;28;20191;-77
2022/07/10 07:05:33;;;;;;;12.35;2.50;;;15.80;99.90;;;;;;5060195;28;20395;-73
2022/07/10 07:07:59;;;;;;;7.45;2.28;;;15.70;99.90;;;;;;5056451;28;20053;-74
2022/07/10 07:10:25;;;;;;;9.10;2.20;;;15.70;99.90;;;;;;5060671;28;20037;-76
2022/07/10 07:12:50;;;;;;;10.10;2.22;;;15.70;99.90;;;;;;5060700;28;20043;-74
2022/07/10 07:15:16;;;;;;;11.07;2.42;;;15.70;99.90;;;;;;5051878;28;20067;-73
2022/07/10 07:17:56;;;;;;;12.50;3.17;;;15.60;99.90;;;;;;5067895;28;20045;-74
2022/07/10 07:23:10;;;;;;;10.63;2.50;;;15.60;99.90;;;;;;5061347;28;20060;-75
2022/07/10 07:25:39;;;;;;;11.65;3.00;;;15.50;99.90;;;;;;5061849;28;20435;-76
2022/07/10 07:28:06;;;;;;;9.70;2.60;;;15.40;99.90;;;;;;5049158;28;20081;-73
2022/07/10 07:30:31;;;;;;;10.93;3.00;;;15.40;99.90;;;;;;5060079;28;20105;-74
2022/07/10 07:32:57;;;;;;;13.55;2.90;;;15.40;99.90;;;;;;5062589;28;20048;-75
2022/07/10 07:35:23;;;;;;;11.00;3.22;;;15.40;99.90;;;;;;5065227;28;20048;-76
2022/07/10 07:37:50;;;;;;;9.40;2.40;;;15.40;99.90;;;;;;5067227;28;20036;-74
2022/07/10 07:40:22;;;;;;;9.90;2.63;;;15.50;99.90;;;;;;5068053;28;20087;-73
2022/07/10 07:42:49;;;;;;;12.05;2.90;;;15.40;99.90;;;;;;5066005;28;20147;-77
2022/07/10 07:45:15;;;;;;;8.80;2.50;;;15.60;99.90;;;;;;5053382;28;20049;-75
2022/07/10 07:47:50;;;;;;;8.90;2.33;;;15.70;99.90;;;;;;5072953;28;20063;-74
2022/07/10 07:50:21;;;;;;;8.23;2.65;;;15.80;99.90;;;;;;5047777;28;20094;-75
2022/07/10 07:52:48;;;;;;;11.13;2.83;;;15.80;99.90;;;;;;5051349;28;20094;-74
2022/07/10 07:55:15;;;;;;;11.90;2.92;;;15.90;99.90;;;;;;5060862;28;20511;-74
2022/07/10 07:57:42;;;;;;;9.25;2.53;;;15.90;99.90;;;;;;5054474;28;20052;-74
2022/07/10 08:00:09;;;;;;;7.37;2.20;;;16.00;99.90;;;;;;5061772;28;20119;-74
2022/07/10 08:02:35;;;;;;;8.90;2.30;;;16.00;99.90;;;;;;5061251;28;20595;-74
2022/07/10 08:05:01;;;;;;;7.13;2.13;;;16.00;99.90;;;;;;5059330;28;20033;-75
2022/07/10 08:07:35;;;;;;;7.67;2.40;;;16.10;99.90;;;;;;5046417;28;20057;-74
2022/07/10 08:10:03;;;;;;;7.65;2.10;;;16.20;99.90;;;;;;5060059;28;20048;-74
2022/07/10 08:12:28;;;;;;;;;;;16.30;99.90;;;;;;5061204;28;20186;-74
2022/07/10 08:14:54;;;;;;;7.28;1.92;;;16.30;99.90;;;;;;5065839;28;20008;-74
2022/07/10 08:17:21;;;;;;;7.43;1.83;;;16.40;99.90;;;;;;5064413;28;20053;-74
2022/07/10 08:19:47;;;;;;;6.20;1.77;;;16.50;99.90;;;;;;5058016;28;20055;-74
2022/07/10 08:22:12;;;;;;;8.93;1.98;;;16.60;99.90;;;;;;5060348;28;20392;-74
2022/07/10 08:24:38;;;;;;;6.85;2.22;;;16.60;99.90;;;;;;5058064;28;20055;-74
2022/07/10 08:27:06;;;;;;;7.95;2.05;;;16.70;99.90;;;;;;5063367;28;20040;-74
2022/07/10 08:29:31;;;;;;;7.82;1.90;;;16.80;99.90;;;;;;5065103;28;20076;-74
2022/07/10 08:31:57;;;;;;;9.07;1.83;;;16.80;99.90;;;;;;5061646;28;20094;-74
2022/07/10 08:34:23;;;;;;;8.63;1.95;;;16.80;99.90;;;;;;5067482;28;20049;-74
2022/07/10 08:36:48;;;;;;;7.40;1.58;;;16.80;99.90;;;;;;5068603;28;20128;-74
2022/07/10 08:39:16;;;;;;;9.85;2.13;;;16.70;99.90;;;;;;5065680;28;20143;-74
2022/07/10 08:41:42;;;;;;;6.07;1.33;;;16.70;99.90;;;;;;5063749;28;20040;-74
2022/07/10 08:44:08;;;;;;;9.68;1.80;;;16.70;99.90;;;;;;5073710;28;20450;-74
2022/07/10 08:46:35;;;;;;;6.20;1.73;;;16.60;99.90;;;;;;5072202;28;20040;-74
2022/07/10 08:49:07;;;;;;;5.00;1.45;;;16.50;99.90;;;;;;5057160;28;20078;-74
2022/07/10 08:51:56;;;;;;;4.57;1.20;;;16.40;99.90;;;;;;5073434;28;20043;-74
2022/07/10 08:54:23;;;;;;;2.83;1.10;;;16.30;99.90;;;;;;5056958;28;20048;-74
2022/07/10 08:56:50;;;;;;;3.25;1.10;;;16.20;99.90;;;;;;5062623;28;20127;-74
2022/07/10 08:59:17;;;;;;;3.90;1.10;;;16.20;99.90;;;;;;5077009;28;20056;-74
2022/07/10 09:01:43;;;;;;;4.13;1.20;;;16.20;99.90;;;;;;5066551;28;20036;-74
2022/07/10 09:04:21;;;;;;;5.47;1.20;;;16.20;99.90;;;;;;5092574;28;20051;-73
2022/07/10 09:06:47;;;;;;;6.65;1.58;;;16.20;99.90;;;;;;5083526;28;20036;-75
2022/07/10 09:09:13;;;;;;;5.55;1.17;;;16.30;99.90;;;;;;5076882;28;20089;-74
2022/07/10 09:11:42;;;;;;;3.92;1.05;;;16.40;99.90;;;;;;5090993;28;20039;-74
2022/07/10 09:14:11;;;;;;;5.28;1.17;;;16.50;99.90;;;;;;5063860;28;20075;-75
2022/07/10 09:16:47;;;;;;;5.53;1.27;;;16.60;99.90;;;;;;5088630;28;20052;-75
2022/07/10 09:19:22;;;;;;;4.13;1.10;;;16.60;99.90;;;;;;5063479;28;20678;-75
2022/07/10 09:22:06;;;;;;;3.28;1.08;;;16.70;99.90;;;;;;5070544;28;20040;-75
2022/07/10 09:24:40;;;;;;;6.00;1.10;;;16.70;99.90;;;;;;5066483;28;20054;-76
2022/07/10 09:27:07;;;;;;;3.30;1.10;;;16.70;99.90;;;;;;5088086;28;20040;-73
2022/07/10 09:29:44;;;;;;;6.07;1.30;;;16.80;99.90;;;;;;5068082;28;20144;-75
2022/07/10 09:32:10;;;;;;;4.68;1.30;;;16.80;99.90;;;;;;5072535;28;20048;-73
2022/07/10 09:34:43;;;;;;;4.28;1.30;;;16.90;99.90;;;;;;5083892;28;20036;-76
2022/07/10 09:37:28;;;;;;;3.45;1.20;;;16.90;99.90;;;;;;5079143;28;20391;-76
2022/07/10 09:39:58;;;;;;;6.80;1.13;;;16.90;99.90;;;;;;5062119;28;20411;-78
2022/07/10 09:42:32;;;;;;;4.65;1.40;;;16.80;99.90;;;;;;5055968;28;20044;-77
2022/07/10 09:45:12;;;;;;;6.50;1.33;;;16.80;99.90;;;;;;5072295;28;20051;-79
2022/07/10 09:47:39;;;;;;;4.38;1.13;;;16.80;99.90;;;;;;5073130;28;20109;-78
2022/07/10 09:50:25;;;;;;;5.32;1.52;;;16.80;99.90;;;;;;5066978;28;20044;-79
2022/07/10 09:52:53;;;;;;;3.58;1.23;;;16.70;99.90;;;;;;5053501;28;20090;-79
2022/07/10 09:55:20;;;;;;;5.25;1.30;;;16.70;99.90;;;;;;5073838;28;20624;-74
2022/07/10 09:57:52;;;;;;;5.78;1.33;;;16.60;99.90;;;;;;5058985;28;20040;-76
2022/07/10 10:00:18;;;;;;;2.85;1.33;;;16.60;99.90;;;;;;5065952;28;20052;-77
2022/07/10 10:02:44;;;;;;;4.13;1.20;;;16.60;99.90;;;;;;5077129;28;20051;-76
2022/07/10 10:05:11;;;;;;;4.28;1.40;;;16.50;99.90;;;;;;5065570;28;20126;-77
2022/07/10 10:07:38;;;;;;;4.07;1.40;;;16.50;99.90;;;;;;5062984;28;20499;-75
2022/07/10 10:10:06;;;;;;;3.87;1.30;;;16.50;99.90;;;;;;5071116;28;20438;-74
2022/07/10 10:12:42;;;;;;;2.50;0.90;;;16.50;99.90;;;;;;5054146;28;20048;-74
2022/07/10 10:15:10;;;;;;;2.08;1.00;;;16.40;99.90;;;;;;5079492;28;20070;-71
2022/07/10 10:17:38;;;;;;;4.75;1.38;;;16.40;99.90;;;;;;5073252;28;20045;-72
2022/07/10 10:22:50;;;;;;;5.22;1.30;;;16.50;99.90;;;;;;5070685;28;20075;-73
2022/07/10 10:25:19;;;;;;;2.70;1.13;;;16.50;99.90;;;;;;5070442;28;20068;-73
2022/07/10 10:27:45;;;;;;;3.92;1.17;;;16.60;99.90;;;;;;5059130;28;20507;-73
2022/07/10 10:30:11;;;;;;;4.15;1.20;;;16.70;99.90;;;;;;5063775;28;20102;-71
2022/07/10 10:32:40;;;;;;;4.03;1.00;;;16.80;99.90;;;;;;5072092;28;20040;-73
2022/07/10 10:35:09;;;;;;;3.67;1.00;;;16.80;99.90;;;;;;5058107;28;20472;-74
2022/07/10 10:37:37;;;;;;;3.90;1.00;;;16.80;99.90;;;;;;5055430;28;20106;-73
2022/07/10 10:40:07;;;;;;;2.42;0.80;;;16.80;99.90;;;;;;5073399;28;20048;-74
2022/07/10 10:42:44;;;;;;;3.28;1.00;;;16.90;99.90;;;;;;5076477;28;20060;-74
2022/07/10 10:45:31;;;;;;;3.28;0.80;;;16.90;99.90;;;;;;5052058;28;20163;-76
2022/07/10 10:48:05;;;;;;;2.08;0.75;;;16.90;99.90;;;;;;5059236;28;20067;-76
2022/07/10 10:50:48;;;;;;;1.52;0.77;;;16.90;99.90;;;;;;5067087;28;20067;-73
2022/07/10 10:53:27;;;;;;;2.88;1.17;;;16.90;99.90;;;;;;5068287;28;20102;-73
2022/07/10 10:56:08;;;;;;;1.48;0.80;;;16.90;99.90;;;;;;5069351;28;20055;-74
2022/07/10 10:58:41;;;;;;;1.92;0.85;;;16.90;99.90;;;;;;5074845;28;20129;-73
2022/07/10 11:01:30;;;;;;;1.02;0.80;;;17.00;99.90;;;;;;5088514;28;20406;-76
2022/07/10 11:04:05;;;;;;;1.50;0.80;;;17.00;99.90;;;;;;5063861;28;20048;-75
2022/07/10 11:06:48;;;;;;;4.13;1.33;;;17.10;99.90;;;;;;5090026;28;20096;-72
2022/07/10 11:09:27;;;;;;;3.80;1.20;;;17.20;99.90;;;;;;5071613;28;20074;-77
2022/07/10 11:12:06;;;;;;;1.65;1.05;;;17.30;99.90;;;;;;5090036;28;20048;-74
2022/07/10 11:14:37;;;;;;;3.55;1.30;;;17.50;99.90;;;;;;5068070;28;20154;-74
2022/07/10 11:17:04;;;;;;;1.77;1.08;;;17.50;99.90;;;;;;5068092;28;20055;-80
2022/07/10 11:19:31;;;;;;;1.42;1.15;;;17.60;99.90;;;;;;5074220;28;20032;-75
2022/07/10 11:22:30;;;;;;;4.78;1.27;;;17.60;99.90;;;;;;5089810;28;20138;-79
2022/07/10 11:25:12;;;;;;;2.72;1.08;;;17.70;99.90;;;;;;5089614;28;20043;-78
2022/07/10 11:27:59;;;;;;;1.90;1.02;;;17.80;99.90;;;;;;5064558;28;20052;-77
2022/07/10 11:30:25;;;;;;;1.52;0.95;;;17.80;99.90;;;;;;5068735;28;20068;-80
2022/07/10 11:32:52;;;;;;;4.03;1.20;;;17.80;99.90;;;;;;5073057;28;20072;-77
2022/07/10 11:35:18;;;;;;;3.10;1.10;;;17.80;99.90;;;;;;5070922;28;20044;-77
2022/07/10 11:37:53;;;;;;;3.40;1.87;;;17.70;99.90;;;;;;5057112;28;20048;-76
2022/07/10 11:40:20;;;;;;;2.58;1.48;;;17.60;99.90;;;;;;5064555;28;20391;-77
2022/07/10 11:42:54;;;;;;;3.53;1.55;;;17.60;99.90;;;;;;5066431;28;20052;-76
2022/07/10 11:45:28;;;;;;;2.90;1.30;;;17.70;99.90;;;;;;5076755;28;20093;-75
2022/07/10 11:47:54;;;;;;;4.55;1.50;;;17.70;99.90;;;;;;5081895;28;20157;-75
2022/07/10 11:50:20;;;;;;;4.88;1.52;;;17.80;99.90;;;;;;5068014;28;20043;-75
2022/07/10 11:52:46;;;;;;;3.00;1.60;;;17.90;99.90;;;;;;5063472;28;20045;-76
2022/07/10 11:55:20;;;;;;;4.15;1.60;;;17.90;99.90;;;;;;5083877;28;20047;-78
2022/07/10 11:57:49;;;;;;;4.45;1.55;;;17.90;99.90;;;;;;5079671;28;20044;-81
2022/07/10 12:00:29;;;;;;;4.80;1.50;;;17.80;99.90;;;;;;5069437;28;20137;-77
2022/07/10 12:02:56;;;;;;;4.38;1.90;;;17.80;99.90;;;;;;5052099;28;20131;-77
2022/07/10 12:05:35;;;;;;;5.10;1.70;;;17.80;99.90;;;;;;5070537;28;20092;-76
2022/07/10 12:08:01;;;;;;;4.93;1.80;;;17.80;99.90;;;;;;5054876;28;20049;-76
2022/07/10 12:10:28;;;;;;;4.53;1.70;;;17.90;99.90;;;;;;5089997;28;20048;-75
2022/07/10 12:13:02;;;;;;;7.35;2.03;;;18.00;99.90;;;;;;5082555;28;20115;-76
2022/07/10 12:15:37;;;;;;;4.82;1.88;;;18.00;99.90;;;;;;5079919;28;20036;-75
2022/07/10 12:18:31;;;;;;;5.68;2.13;;;18.20;99.90;;;;;;5088924;28;20628;-78
2022/07/10 12:20:59;;;;;;;4.15;1.70;;;18.30;99.90;;;;;;5068336;28;20113;-78
2022/07/10 12:23:25;;;;;;;5.57;1.92;;;18.30;99.90;;;;;;5092453;28;20036;-78
2022/07/10 12:25:51;;;;;;;7.32;2.33;;;18.30;99.90;;;;;;5090612;28;20181;-78
2022/07/10 12:28:17;;;;;;;6.53;1.92;;;18.40;99.90;;;;;;5079159;28;20044;-75
2022/07/10 12:30:45;;;;;;;6.40;2.03;;;18.40;99.90;;;;;;5089187;28;20065;-76
2022/07/10 12:33:16;;;;;;;8.05;2.20;;;18.50;99.90;;;;;;5086749;28;20043;-75
2022/07/10 12:35:53;;;;;;;5.53;1.73;;;18.50;99.90;;;;;;5069160;28;20086;-75
2022/07/10 12:38:23;;;;;;;7.38;2.00;;;18.70;99.90;;;;;;5065610;28;20066;-76
2022/07/10 12:40:51;;;;;;;4.85;1.90;;;18.70;99.90;;;;;;5091422;28;20044;-74
2022/07/10 12:43:27;;;;;;;5.55;1.80;;;18.70;99.90;;;;;;5079036;28;20361;-80
2022/07/10 12:46:19;;;;;;;7.63;2.00;;;18.70;99.90;;;;;;5064620;28;20048;-78
2022/07/10 12:49:12;;;;;;;4.93;2.10;;;18.60;99.90;;;;;;5086483;28;20484;-74
2022/07/10 12:51:40;;;;;;;4.78;1.98;;;18.40;99.90;;;;;;5072770;28;20072;-75
2022/07/10 12:54:06;;;;;;;7.35;2.70;;;18.20;99.90;;;;;;5065964;28;20110;-75
2022/07/10 12:56:34;;;;;;;4.65;2.08;;;17.90;99.90;;;;;;5081950;28;20041;-79
2022/07/10 12:59:02;;;;;;;5.70;2.33;;;17.80;99.90;;;;;;5070244;28;20055;-79